sensor_id;sensor_type;location;lat;lon;timestamp;P1;durP1;ratioP1;P2;durP2;ratioP2
84025;SDS011;74110;45.660;25.582;2023-11-19T00:02:11;3.50;;;1.50;;
84025;SDS011;74110;45.660;25.582;2023-11-19T00:04:40;4.50;;;2.30;;
84025;SDS011;74110;45.660;25.582;2023-11-19T00:07:09;4.40;;;2.50;;
84025;SDS011;74110;45.660;25.582;2023-11-19T00:09:41;6.40;;;3.10;;
84025;SDS011;74110;45.660;25.582;2023-11-19T00:12:13;4.80;;;2.50;;
84025;SDS011;74110;45.660;25.582;2023-11-19T00:14:42;2.80;;;1.80;;
84025;SDS011;74110;45.660;25.582;2023-11-19T00:17:11;4.50;;;2.60;;
84025;SDS011;74110;45.660;25.582;2023-11-19T00:19:41;2.00;;;1.20;;
84025;SDS011;74110;45.660;25.582;2023-11-19T00:22:11;3.50;;;2.00;;
84025;SDS011;74110;45.660;25.582;2023-11-19T00:27:09;4.10;;;2.20;;
84025;SDS011;74110;45.660;25.582;2023-11-19T00:29:40;5.80;;;2.90;;
84025;SDS011;74110;45.660;25.582;2023-11-19T00:32:09;4.00;;;2.10;;
84025;SDS011;74110;45.660;25.582;2023-11-19T00:34:40;5.00;;;3.00;;
84025;SDS011;74110;45.660;25.582;2023-11-19T00:37:16;4.00;;;2.20;;
84025;SDS011;74110;45.660;25.582;2023-11-19T00:39:45;3.90;;;2.30;;
84025;SDS011;74110;45.660;25.582;2023-11-19T00:42:14;3.40;;;2.00;;
84025;SDS011;74110;45.660;25.582;2023-11-19T00:44:44;4.80;;;2.70;;
84025;SDS011;74110;45.660;25.582;2023-11-19T00:47:18;4.00;;;2.40;;
84025;SDS011;74110;45.660;25.582;2023-11-19T00:49:49;6.10;;;3.20;;
84025;SDS011;74110;45.660;25.582;2023-11-19T00:52:19;4.90;;;2.90;;
84025;SDS011;74110;45.660;25.582;2023-11-19T00:54:49;4.80;;;2.70;;
84025;SDS011;74110;45.660;25.582;2023-11-19T00:57:18;6.60;;;3.70;;
84025;SDS011;74110;45.660;25.582;2023-11-19T00:59:47;6.70;;;3.30;;
84025;SDS011;74110;45.660;25.582;2023-11-19T01:02:16;4.20;;;2.90;;
84025;SDS011;74110;45.660;25.582;2023-11-19T01:04:45;6.80;;;3.20;;
84025;SDS011;74110;45.660;25.582;2023-11-19T01:07:15;5.40;;;2.10;;
84025;SDS011;74110;45.660;25.582;2023-11-19T01:09:44;4.90;;;2.90;;
84025;SDS011;74110;45.660;25.582;2023-11-19T01:12:13;3.70;;;2.40;;
84025;SDS011;74110;45.660;25.582;2023-11-19T01:14:43;9.50;;;3.50;;
84025;SDS011;74110;45.660;25.582;2023-11-19T01:17:13;4.30;;;2.80;;
84025;SDS011;74110;45.660;25.582;2023-11-19T01:19:42;6.40;;;3.70;;
84025;SDS011;74110;45.660;25.582;2023-11-19T01:22:11;4.30;;;2.80;;
84025;SDS011;74110;45.660;25.582;2023-11-19T01:24:41;4.20;;;2.60;;
84025;SDS011;74110;45.660;25.582;2023-11-19T01:27:10;3.60;;;2.60;;
84025;SDS011;74110;45.660;25.582;2023-11-19T01:29:39;5.80;;;3.30;;
84025;SDS011;74110;45.660;25.582;2023-11-19T01:32:09;4.70;;;2.80;;
84025;SDS011;74110;45.660;25.582;2023-11-19T01:34:37;6.60;;;3.60;;
84025;SDS011;74110;45.660;25.582;2023-11-19T01:37:08;5.40;;;2.70;;
84025;SDS011;74110;45.660;25.582;2023-11-19T01:39:39;4.20;;;2.80;;
84025;SDS011;74110;45.660;25.582;2023-11-19T01:42:08;6.00;;;3.30;;
84025;SDS011;74110;45.660;25.582;2023-11-19T01:47:06;5.00;;;3.10;;
84025;SDS011;74110;45.660;25.582;2023-11-19T01:49:35;5.70;;;3.40;;
84025;SDS011;74110;45.660;25.582;2023-11-19T01:52:04;6.80;;;3.60;;
84025;SDS011;74110;45.660;25.582;2023-11-19T01:54:34;6.90;;;3.50;;
84025;SDS011;74110;45.660;25.582;2023-11-19T01:57:03;5.00;;;3.20;;
84025;SDS011;74110;45.660;25.582;2023-11-19T01:59:33;4.50;;;2.90;;
84025;SDS011;74110;45.660;25.582;2023-11-19T02:04:30;5.30;;;3.10;;
84025;SDS011;74110;45.660;25.582;2023-11-19T02:07:00;6.40;;;4.00;;
84025;SDS011;74110;45.660;25.582;2023-11-19T02:09:29;6.30;;;4.00;;
84025;SDS011;74110;45.660;25.582;2023-11-19T02:11:58;6.20;;;3.80;;
84025;SDS011;74110;45.660;25.582;2023-11-19T02:14:28;6.10;;;3.80;;
84025;SDS011;74110;45.660;25.582;2023-11-19T02:16:57;6.40;;;3.10;;
84025;SDS011;74110;45.660;25.582;2023-11-19T02:19:26;5.70;;;3.30;;
84025;SDS011;74110;45.660;25.582;2023-11-19T02:21:54;5.20;;;3.70;;
84025;SDS011;74110;45.660;25.582;2023-11-19T02:24:24;5.60;;;3.50;;
84025;SDS011;74110;45.660;25.582;2023-11-19T02:27:00;5.20;;;3.20;;
84025;SDS011;74110;45.660;25.582;2023-11-19T02:29:34;4.40;;;2.30;;
84025;SDS011;74110;45.660;25.582;2023-11-19T02:32:03;4.70;;;3.10;;
84025;SDS011;74110;45.660;25.582;2023-11-19T02:34:36;3.80;;;2.60;;
84025;SDS011;74110;45.660;25.582;2023-11-19T02:37:04;3.00;;;1.50;;
84025;SDS011;74110;45.660;25.582;2023-11-19T02:39:33;3.50;;;2.60;;
84025;SDS011;74110;45.660;25.582;2023-11-19T02:42:02;6.00;;;3.10;;
84025;SDS011;74110;45.660;25.582;2023-11-19T02:44:31;4.20;;;2.60;;
84025;SDS011;74110;45.660;25.582;2023-11-19T02:47:01;2.90;;;1.40;;
84025;SDS011;74110;45.660;25.582;2023-11-19T02:49:31;5.40;;;3.20;;
84025;SDS011;74110;45.660;25.582;2023-11-19T02:52:00;4.90;;;2.60;;
84025;SDS011;74110;45.660;25.582;2023-11-19T02:54:29;5.60;;;2.90;;
84025;SDS011;74110;45.660;25.582;2023-11-19T02:56:58;5.40;;;3.30;;
84025;SDS011;74110;45.660;25.582;2023-11-19T02:59:30;4.80;;;2.80;;
84025;SDS011;74110;45.660;25.582;2023-11-19T03:02:07;4.00;;;2.60;;
84025;SDS011;74110;45.660;25.582;2023-11-19T03:04:45;4.80;;;3.00;;
84025;SDS011;74110;45.660;25.582;2023-11-19T03:07:13;4.60;;;2.80;;
84025;SDS011;74110;45.660;25.582;2023-11-19T03:09:42;2.20;;;1.50;;
84025;SDS011;74110;45.660;25.582;2023-11-19T03:12:13;4.80;;;2.70;;
84025;SDS011;74110;45.660;25.582;2023-11-19T03:14:42;4.60;;;3.00;;
84025;SDS011;74110;45.660;25.582;2023-11-19T03:17:13;5.10;;;2.90;;
84025;SDS011;74110;45.660;25.582;2023-11-19T03:19:43;4.50;;;2.50;;
84025;SDS011;74110;45.660;25.582;2023-11-19T03:22:13;5.30;;;2.60;;
84025;SDS011;74110;45.660;25.582;2023-11-19T03:24:42;6.90;;;2.70;;
84025;SDS011;74110;45.660;25.582;2023-11-19T03:27:11;7.60;;;3.60;;
84025;SDS011;74110;45.660;25.582;2023-11-19T03:29:43;7.40;;;3.20;;
84025;SDS011;74110;45.660;25.582;2023-11-19T03:32:12;6.60;;;3.30;;
84025;SDS011;74110;45.660;25.582;2023-11-19T03:34:41;4.30;;;2.60;;
84025;SDS011;74110;45.660;25.582;2023-11-19T03:37:10;3.80;;;2.20;;
84025;SDS011;74110;45.660;25.582;2023-11-19T03:39:39;2.30;;;1.20;;
84025;SDS011;74110;45.660;25.582;2023-11-19T03:42:07;5.80;;;3.00;;
84025;SDS011;74110;45.660;25.582;2023-11-19T03:44:37;5.80;;;3.30;;
84025;SDS011;74110;45.660;25.582;2023-11-19T03:47:05;4.40;;;2.80;;
84025;SDS011;74110;45.660;25.582;2023-11-19T03:49:34;4.00;;;2.60;;
84025;SDS011;74110;45.660;25.582;2023-11-19T03:52:03;3.70;;;2.50;;
84025;SDS011;74110;45.660;25.582;2023-11-19T03:54:47;3.80;;;2.40;;
84025;SDS011;74110;45.660;25.582;2023-11-19T03:57:16;3.40;;;2.20;;
84025;SDS011;74110;45.660;25.582;2023-11-19T03:59:45;4.80;;;2.50;;
84025;SDS011;74110;45.660;25.582;2023-11-19T04:02:15;4.90;;;3.00;;
84025;SDS011;74110;45.660;25.582;2023-11-19T04:04:44;6.00;;;3.30;;
84025;SDS011;74110;45.660;25.582;2023-11-19T04:07:13;3.70;;;2.20;;
84025;SDS011;74110;45.660;25.582;2023-11-19T04:09:42;4.80;;;2.60;;
84025;SDS011;74110;45.660;25.582;2023-11-19T04:12:11;3.00;;;1.80;;
84025;SDS011;74110;45.660;25.582;2023-11-19T04:14:40;3.90;;;2.50;;
84025;SDS011;74110;45.660;25.582;2023-11-19T04:17:08;3.30;;;1.80;;
84025;SDS011;74110;45.660;25.582;2023-11-19T04:19:39;6.10;;;3.30;;
84025;SDS011;74110;45.660;25.582;2023-11-19T04:22:10;5.90;;;2.90;;
84025;SDS011;74110;45.660;25.582;2023-11-19T04:24:39;5.60;;;2.60;;
84025;SDS011;74110;45.660;25.582;2023-11-19T04:27:08;4.90;;;2.90;;
84025;SDS011;74110;45.660;25.582;2023-11-19T04:29:38;6.10;;;2.90;;
84025;SDS011;74110;45.660;25.582;2023-11-19T04:32:07;4.70;;;2.70;;
84025;SDS011;74110;45.660;25.582;2023-11-19T04:34:36;4.90;;;2.80;;
84025;SDS011;74110;45.660;25.582;2023-11-19T04:37:05;5.00;;;2.80;;
84025;SDS011;74110;45.660;25.582;2023-11-19T04:39:37;4.80;;;2.60;;
84025;SDS011;74110;45.660;25.582;2023-11-19T04:42:06;5.10;;;3.00;;
84025;SDS011;74110;45.660;25.582;2023-11-19T04:44:34;4.20;;;2.60;;
84025;SDS011;74110;45.660;25.582;2023-11-19T04:47:03;5.60;;;3.40;;
84025;SDS011;74110;45.660;25.582;2023-11-19T04:49:34;5.20;;;3.00;;
84025;SDS011;74110;45.660;25.582;2023-11-19T04:52:03;2.80;;;1.90;;
84025;SDS011;74110;45.660;25.582;2023-11-19T04:54:33;4.00;;;2.40;;
84025;SDS011;74110;45.660;25.582;2023-11-19T04:57:03;4.40;;;2.40;;
84025;SDS011;74110;45.660;25.582;2023-11-19T04:59:34;6.50;;;3.00;;
84025;SDS011;74110;45.660;25.582;2023-11-19T05:02:03;4.70;;;2.60;;
84025;SDS011;74110;45.660;25.582;2023-11-19T05:04:33;6.60;;;3.50;;
84025;SDS011;74110;45.660;25.582;2023-11-19T05:07:01;4.70;;;2.70;;
84025;SDS011;74110;45.660;25.582;2023-11-19T05:09:31;4.60;;;2.30;;
84025;SDS011;74110;45.660;25.582;2023-11-19T05:12:01;4.00;;;2.30;;
84025;SDS011;74110;45.660;25.582;2023-11-19T05:14:31;5.10;;;2.60;;
84025;SDS011;74110;45.660;25.582;2023-11-19T05:17:01;5.40;;;2.70;;
84025;SDS011;74110;45.660;25.582;2023-11-19T05:19:29;7.50;;;3.60;;
84025;SDS011;74110;45.660;25.582;2023-11-19T05:21:58;6.10;;;3.10;;
84025;SDS011;74110;45.660;25.582;2023-11-19T05:24:28;4.40;;;2.50;;
84025;SDS011;74110;45.660;25.582;2023-11-19T05:26:58;4.20;;;2.30;;
84025;SDS011;74110;45.660;25.582;2023-11-19T05:29:27;4.30;;;2.30;;
84025;SDS011;74110;45.660;25.582;2023-11-19T05:31:57;4.60;;;2.70;;
84025;SDS011;74110;45.660;25.582;2023-11-19T05:34:27;4.40;;;2.50;;
84025;SDS011;74110;45.660;25.582;2023-11-19T05:36:57;4.90;;;2.80;;
84025;SDS011;74110;45.660;25.582;2023-11-19T05:39:27;6.50;;;3.60;;
84025;SDS011;74110;45.660;25.582;2023-11-19T05:41:56;4.20;;;2.60;;
84025;SDS011;74110;45.660;25.582;2023-11-19T05:44:26;4.90;;;2.40;;
84025;SDS011;74110;45.660;25.582;2023-11-19T05:46:55;5.30;;;2.70;;
84025;SDS011;74110;45.660;25.582;2023-11-19T05:49:24;3.20;;;1.90;;
84025;SDS011;74110;45.660;25.582;2023-11-19T05:51:54;8.20;;;4.10;;
84025;SDS011;74110;45.660;25.582;2023-11-19T05:54:25;7.10;;;3.60;;
84025;SDS011;74110;45.660;25.582;2023-11-19T05:56:54;7.00;;;3.00;;
84025;SDS011;74110;45.660;25.582;2023-11-19T05:59:24;4.20;;;2.90;;
84025;SDS011;74110;45.660;25.582;2023-11-19T06:01:54;5.30;;;3.20;;
84025;SDS011;74110;45.660;25.582;2023-11-19T06:04:24;4.10;;;1.80;;
84025;SDS011;74110;45.660;25.582;2023-11-19T06:06:54;5.30;;;2.70;;
84025;SDS011;74110;45.660;25.582;2023-11-19T06:09:24;5.70;;;3.10;;
84025;SDS011;74110;45.660;25.582;2023-11-19T06:11:52;5.10;;;2.70;;
84025;SDS011;74110;45.660;25.582;2023-11-19T06:14:21;2.60;;;1.80;;
84025;SDS011;74110;45.660;25.582;2023-11-19T06:16:52;8.40;;;3.80;;
84025;SDS011;74110;45.660;25.582;2023-11-19T06:19:21;6.20;;;3.30;;
84025;SDS011;74110;45.660;25.582;2023-11-19T06:21:55;5.70;;;3.20;;
84025;SDS011;74110;45.660;25.582;2023-11-19T06:24:24;4.90;;;3.10;;
84025;SDS011;74110;45.660;25.582;2023-11-19T06:26:53;7.10;;;2.60;;
84025;SDS011;74110;45.660;25.582;2023-11-19T06:29:22;5.10;;;2.70;;
84025;SDS011;74110;45.660;25.582;2023-11-19T06:31:51;9.20;;;4.70;;
84025;SDS011;74110;45.660;25.582;2023-11-19T06:34:20;7.80;;;4.60;;
84025;SDS011;74110;45.660;25.582;2023-11-19T06:36:49;6.00;;;3.10;;
84025;SDS011;74110;45.660;25.582;2023-11-19T06:39:18;7.90;;;3.60;;
84025;SDS011;74110;45.660;25.582;2023-11-19T06:41:48;5.10;;;3.10;;
84025;SDS011;74110;45.660;25.582;2023-11-19T06:44:18;4.50;;;3.00;;
84025;SDS011;74110;45.660;25.582;2023-11-19T06:46:48;7.20;;;4.20;;
84025;SDS011;74110;45.660;25.582;2023-11-19T06:49:17;6.70;;;3.50;;
84025;SDS011;74110;45.660;25.582;2023-11-19T06:51:48;5.80;;;3.30;;
84025;SDS011;74110;45.660;25.582;2023-11-19T06:54:17;6.80;;;3.70;;
84025;SDS011;74110;45.660;25.582;2023-11-19T06:56:47;4.00;;;2.60;;
84025;SDS011;74110;45.660;25.582;2023-11-19T06:59:18;7.10;;;2.90;;
84025;SDS011;74110;45.660;25.582;2023-11-19T07:01:48;11.30;;;3.30;;
84025;SDS011;74110;45.660;25.582;2023-11-19T07:04:18;6.50;;;3.70;;
84025;SDS011;74110;45.660;25.582;2023-11-19T07:06:47;5.10;;;2.80;;
84025;SDS011;74110;45.660;25.582;2023-11-19T07:09:17;5.40;;;3.00;;
84025;SDS011;74110;45.660;25.582;2023-11-19T07:11:47;9.00;;;4.90;;
84025;SDS011;74110;45.660;25.582;2023-11-19T07:14:19;9.10;;;4.80;;
84025;SDS011;74110;45.660;25.582;2023-11-19T07:16:48;6.40;;;4.10;;
84025;SDS011;74110;45.660;25.582;2023-11-19T07:19:20;6.10;;;3.20;;
84025;SDS011;74110;45.660;25.582;2023-11-19T07:21:49;7.70;;;4.10;;
84025;SDS011;74110;45.660;25.582;2023-11-19T07:24:18;9.80;;;3.90;;
84025;SDS011;74110;45.660;25.582;2023-11-19T07:26:48;6.20;;;3.30;;
84025;SDS011;74110;45.660;25.582;2023-11-19T07:29:17;4.90;;;3.10;;
84025;SDS011;74110;45.660;25.582;2023-11-19T07:31:49;7.30;;;3.60;;
84025;SDS011;74110;45.660;25.582;2023-11-19T07:34:18;8.70;;;4.40;;
84025;SDS011;74110;45.660;25.582;2023-11-19T07:36:48;6.30;;;3.80;;
84025;SDS011;74110;45.660;25.582;2023-11-19T07:39:17;6.40;;;3.40;;
84025;SDS011;74110;45.660;25.582;2023-11-19T07:41:46;7.70;;;4.20;;
84025;SDS011;74110;45.660;25.582;2023-11-19T07:44:15;5.40;;;3.10;;
84025;SDS011;74110;45.660;25.582;2023-11-19T07:46:43;5.70;;;3.20;;
84025;SDS011;74110;45.660;25.582;2023-11-19T07:49:12;4.90;;;2.90;;
84025;SDS011;74110;45.660;25.582;2023-11-19T07:51:42;7.50;;;3.60;;
84025;SDS011;74110;45.660;25.582;2023-11-19T07:54:10;6.80;;;3.80;;
84025;SDS011;74110;45.660;25.582;2023-11-19T07:56:39;6.30;;;3.70;;
84025;SDS011;74110;45.660;25.582;2023-11-19T07:59:08;4.20;;;2.40;;
84025;SDS011;74110;45.660;25.582;2023-11-19T08:01:37;6.80;;;3.60;;
84025;SDS011;74110;45.660;25.582;2023-11-19T08:04:06;6.20;;;4.30;;
84025;SDS011;74110;45.660;25.582;2023-11-19T08:06:35;7.60;;;4.00;;
84025;SDS011;74110;45.660;25.582;2023-11-19T08:09:04;7.60;;;4.30;;
84025;SDS011;74110;45.660;25.582;2023-11-19T08:11:34;7.20;;;3.70;;
84025;SDS011;74110;45.660;25.582;2023-11-19T08:14:04;4.90;;;3.10;;
84025;SDS011;74110;45.660;25.582;2023-11-19T08:16:33;5.60;;;3.30;;
84025;SDS011;74110;45.660;25.582;2023-11-19T08:19:02;5.20;;;2.40;;
84025;SDS011;74110;45.660;25.582;2023-11-19T08:21:31;7.60;;;3.40;;
84025;SDS011;74110;45.660;25.582;2023-11-19T08:24:01;6.90;;;3.30;;
84025;SDS011;74110;45.660;25.582;2023-11-19T08:26:32;5.30;;;2.70;;
84025;SDS011;74110;45.660;25.582;2023-11-19T08:29:00;6.70;;;3.00;;
84025;SDS011;74110;45.660;25.582;2023-11-19T08:31:29;6.20;;;3.50;;
84025;SDS011;74110;45.660;25.582;2023-11-19T08:33:59;7.40;;;3.40;;
84025;SDS011;74110;45.660;25.582;2023-11-19T08:36:29;6.90;;;3.90;;
84025;SDS011;74110;45.660;25.582;2023-11-19T08:39:00;5.60;;;3.80;;
84025;SDS011;74110;45.660;25.582;2023-11-19T08:41:30;4.50;;;3.00;;
84025;SDS011;74110;45.660;25.582;2023-11-19T08:43:59;5.00;;;2.40;;
84025;SDS011;74110;45.660;25.582;2023-11-19T08:46:28;5.00;;;2.50;;
84025;SDS011;74110;45.660;25.582;2023-11-19T08:48:57;4.60;;;2.80;;
84025;SDS011;74110;45.660;25.582;2023-11-19T08:51:26;5.20;;;2.90;;
84025;SDS011;74110;45.660;25.582;2023-11-19T08:53:57;5.10;;;3.20;;
84025;SDS011;74110;45.660;25.582;2023-11-19T08:56:26;5.60;;;3.30;;
84025;SDS011;74110;45.660;25.582;2023-11-19T08:59:00;5.30;;;3.50;;
84025;SDS011;74110;45.660;25.582;2023-11-19T09:01:29;7.20;;;3.60;;
84025;SDS011;74110;45.660;25.582;2023-11-19T09:03:58;6.40;;;3.60;;
84025;SDS011;74110;45.660;25.582;2023-11-19T09:06:28;6.50;;;3.50;;
84025;SDS011;74110;45.660;25.582;2023-11-19T09:08:58;4.60;;;2.70;;
84025;SDS011;74110;45.660;25.582;2023-11-19T09:11:31;4.90;;;2.80;;
84025;SDS011;74110;45.660;25.582;2023-11-19T09:13:59;5.00;;;2.60;;
84025;SDS011;74110;45.660;25.582;2023-11-19T09:16:28;4.70;;;2.70;;
84025;SDS011;74110;45.660;25.582;2023-11-19T09:19:00;4.90;;;2.60;;
84025;SDS011;74110;45.660;25.582;2023-11-19T09:21:34;6.70;;;3.60;;
84025;SDS011;74110;45.660;25.582;2023-11-19T09:24:07;5.30;;;3.40;;
84025;SDS011;74110;45.660;25.582;2023-11-19T09:26:37;4.50;;;3.00;;
84025;SDS011;74110;45.660;25.582;2023-11-19T09:29:10;2.80;;;1.80;;
84025;SDS011;74110;45.660;25.582;2023-11-19T09:31:39;4.50;;;2.50;;
84025;SDS011;74110;45.660;25.582;2023-11-19T09:34:09;5.00;;;2.30;;
84025;SDS011;74110;45.660;25.582;2023-11-19T09:36:39;4.50;;;2.80;;
84025;SDS011;74110;45.660;25.582;2023-11-19T09:39:13;4.90;;;2.70;;
84025;SDS011;74110;45.660;25.582;2023-11-19T09:41:46;6.00;;;2.70;;
84025;SDS011;74110;45.660;25.582;2023-11-19T09:44:16;4.70;;;2.60;;
84025;SDS011;74110;45.660;25.582;2023-11-19T09:46:46;5.80;;;3.60;;
84025;SDS011;74110;45.660;25.582;2023-11-19T09:49:18;5.00;;;3.10;;
84025;SDS011;74110;45.660;25.582;2023-11-19T09:52:04;6.80;;;3.70;;
84025;SDS011;74110;45.660;25.582;2023-11-19T09:54:33;5.80;;;3.10;;
84025;SDS011;74110;45.660;25.582;2023-11-19T09:57:02;4.60;;;2.70;;
84025;SDS011;74110;45.660;25.582;2023-11-19T09:59:36;5.80;;;2.90;;
84025;SDS011;74110;45.660;25.582;2023-11-19T10:02:07;5.80;;;3.00;;
84025;SDS011;74110;45.660;25.582;2023-11-19T10:04:37;4.60;;;2.80;;
84025;SDS011;74110;45.660;25.582;2023-11-19T10:07:08;5.90;;;3.10;;
84025;SDS011;74110;45.660;25.582;2023-11-19T10:09:37;5.20;;;3.00;;
84025;SDS011;74110;45.660;25.582;2023-11-19T10:12:06;4.10;;;2.20;;
84025;SDS011;74110;45.660;25.582;2023-11-19T10:14:35;6.20;;;3.30;;
84025;SDS011;74110;45.660;25.582;2023-11-19T10:17:07;6.50;;;3.00;;
84025;SDS011;74110;45.660;25.582;2023-11-19T10:19:36;6.50;;;3.30;;
84025;SDS011;74110;45.660;25.582;2023-11-19T10:22:08;7.50;;;3.80;;
84025;SDS011;74110;45.660;25.582;2023-11-19T10:24:36;6.10;;;3.90;;
84025;SDS011;74110;45.660;25.582;2023-11-19T10:27:14;6.70;;;3.60;;
84025;SDS011;74110;45.660;25.582;2023-11-19T10:29:47;4.50;;;2.80;;
84025;SDS011;74110;45.660;25.582;2023-11-19T10:32:16;6.50;;;3.30;;
84025;SDS011;74110;45.660;25.582;2023-11-19T10:35:06;4.70;;;2.80;;
84025;SDS011;74110;45.660;25.582;2023-11-19T10:37:37;5.20;;;3.50;;
84025;SDS011;74110;45.660;25.582;2023-11-19T10:40:06;6.40;;;3.20;;
84025;SDS011;74110;45.660;25.582;2023-11-19T10:42:41;3.30;;;2.00;;
84025;SDS011;74110;45.660;25.582;2023-11-19T10:45:21;5.40;;;3.00;;
84025;SDS011;74110;45.660;25.582;2023-11-19T10:47:52;5.50;;;2.90;;
84025;SDS011;74110;45.660;25.582;2023-11-19T10:50:24;3.60;;;2.40;;
84025;SDS011;74110;45.660;25.582;2023-11-19T10:52:56;5.40;;;3.20;;
84025;SDS011;74110;45.660;25.582;2023-11-19T10:55:29;4.30;;;3.00;;
84025;SDS011;74110;45.660;25.582;2023-11-19T10:58:00;4.80;;;3.00;;
84025;SDS011;74110;45.660;25.582;2023-11-19T11:00:43;5.70;;;3.10;;
84025;SDS011;74110;45.660;25.582;2023-11-19T11:03:20;4.40;;;2.30;;
84025;SDS011;74110;45.660;25.582;2023-11-19T11:08:22;4.40;;;2.40;;
84025;SDS011;74110;45.660;25.582;2023-11-19T11:10:57;5.20;;;2.80;;
84025;SDS011;74110;45.660;25.582;2023-11-19T11:13:26;4.20;;;2.40;;
84025;SDS011;74110;45.660;25.582;2023-11-19T11:15:59;4.80;;;2.60;;
84025;SDS011;74110;45.660;25.582;2023-11-19T11:18:29;4.40;;;2.60;;
84025;SDS011;74110;45.660;25.582;2023-11-19T11:21:05;5.80;;;3.50;;
84025;SDS011;74110;45.660;25.582;2023-11-19T11:32:30;5.70;;;3.30;;
84025;SDS011;74110;45.660;25.582;2023-11-19T11:38:15;6.40;;;3.20;;
84025;SDS011;74110;45.660;25.582;2023-11-19T11:54:32;5.30;;;2.80;;
84025;SDS011;74110;45.660;25.582;2023-11-19T11:57:11;6.90;;;3.50;;
84025;SDS011;74110;45.660;25.582;2023-11-19T12:02:21;8.70;;;3.40;;
84025;SDS011;74110;45.660;25.582;2023-11-19T12:04:51;5.60;;;3.40;;
84025;SDS011;74110;45.660;25.582;2023-11-19T12:07:22;5.60;;;3.10;;
84025;SDS011;74110;45.660;25.582;2023-11-19T12:09:55;8.10;;;3.10;;
84025;SDS011;74110;45.660;25.582;2023-11-19T12:12:40;5.10;;;2.30;;
84025;SDS011;74110;45.660;25.582;2023-11-19T12:15:10;6.80;;;3.50;;
84025;SDS011;74110;45.660;25.582;2023-11-19T12:17:43;5.60;;;3.00;;
84025;SDS011;74110;45.660;25.582;2023-11-19T12:20:25;3.60;;;2.00;;
84025;SDS011;74110;45.660;25.582;2023-11-19T12:22:57;5.10;;;3.20;;
84025;SDS011;74110;45.660;25.582;2023-11-19T12:25:34;6.70;;;3.00;;
84025;SDS011;74110;45.660;25.582;2023-11-19T12:28:04;6.10;;;3.50;;
84025;SDS011;74110;45.660;25.582;2023-11-19T12:30:34;5.40;;;3.30;;
84025;SDS011;74110;45.660;25.582;2023-11-19T12:33:10;4.00;;;2.20;;
84025;SDS011;74110;45.660;25.582;2023-11-19T12:35:41;5.40;;;2.80;;
84025;SDS011;74110;45.660;25.582;2023-11-19T12:38:24;4.20;;;2.80;;
84025;SDS011;74110;45.660;25.582;2023-11-19T12:41:07;4.80;;;2.60;;
84025;SDS011;74110;45.660;25.582;2023-11-19T12:43:41;5.50;;;2.90;;
84025;SDS011;74110;45.660;25.582;2023-11-19T12:46:17;6.60;;;3.70;;
84025;SDS011;74110;45.660;25.582;2023-11-19T12:48:54;4.80;;;2.40;;
84025;SDS011;74110;45.660;25.582;2023-11-19T12:51:30;6.60;;;3.60;;
84025;SDS011;74110;45.660;25.582;2023-11-19T12:54:00;10.30;;;4.50;;
84025;SDS011;74110;45.660;25.582;2023-11-19T12:56:29;8.70;;;4.40;;
84025;SDS011;74110;45.660;25.582;2023-11-19T12:59:01;8.90;;;4.50;;
84025;SDS011;74110;45.660;25.582;2023-11-19T13:01:40;9.70;;;5.00;;
84025;SDS011;74110;45.660;25.582;2023-11-19T13:04:18;7.10;;;4.00;;
84025;SDS011;74110;45.660;25.582;2023-11-19T13:06:49;9.20;;;4.80;;
84025;SDS011;74110;45.660;25.582;2023-11-19T13:09:25;7.60;;;3.60;;
84025;SDS011;74110;45.660;25.582;2023-11-19T13:11:55;9.60;;;4.60;;
84025;SDS011;74110;45.660;25.582;2023-11-19T13:14:35;12.50;;;6.00;;
84025;SDS011;74110;45.660;25.582;2023-11-19T13:17:07;11.30;;;5.90;;
84025;SDS011;74110;45.660;25.582;2023-11-19T13:19:37;7.90;;;4.20;;
84025;SDS011;74110;45.660;25.582;2023-11-19T13:22:06;9.10;;;4.40;;
84025;SDS011;74110;45.660;25.582;2023-11-19T13:24:35;7.30;;;3.20;;
84025;SDS011;74110;45.660;25.582;2023-11-19T13:27:04;8.20;;;4.80;;
84025;SDS011;74110;45.660;25.582;2023-11-19T13:29:32;10.10;;;5.50;;
84025;SDS011;74110;45.660;25.582;2023-11-19T13:32:03;12.10;;;6.10;;
84025;SDS011;74110;45.660;25.582;2023-11-19T13:34:35;12.20;;;5.10;;
84025;SDS011;74110;45.660;25.582;2023-11-19T13:37:03;9.10;;;4.10;;
84025;SDS011;74110;45.660;25.582;2023-11-19T13:39:32;12.60;;;5.60;;
84025;SDS011;74110;45.660;25.582;2023-11-19T13:42:01;8.30;;;4.00;;
84025;SDS011;74110;45.660;25.582;2023-11-19T13:44:34;8.50;;;4.50;;
84025;SDS011;74110;45.660;25.582;2023-11-19T13:47:04;9.30;;;4.30;;
84025;SDS011;74110;45.660;25.582;2023-11-19T13:49:33;11.20;;;4.80;;
84025;SDS011;74110;45.660;25.582;2023-11-19T13:52:02;7.60;;;4.10;;
84025;SDS011;74110;45.660;25.582;2023-11-19T13:54:32;7.60;;;4.30;;
84025;SDS011;74110;45.660;25.582;2023-11-19T13:57:02;6.60;;;3.70;;
84025;SDS011;74110;45.660;25.582;2023-11-19T13:59:32;9.70;;;4.60;;
84025;SDS011;74110;45.660;25.582;2023-11-19T14:02:02;7.10;;;3.90;;
84025;SDS011;74110;45.660;25.582;2023-11-19T14:04:31;9.00;;;4.50;;
84025;SDS011;74110;45.660;25.582;2023-11-19T14:07:00;13.20;;;5.80;;
84025;SDS011;74110;45.660;25.582;2023-11-19T14:09:29;15.30;;;5.90;;
84025;SDS011;74110;45.660;25.582;2023-11-19T14:11:58;9.10;;;4.60;;
84025;SDS011;74110;45.660;25.582;2023-11-19T14:14:28;10.40;;;4.90;;
84025;SDS011;74110;45.660;25.582;2023-11-19T14:16:56;9.10;;;4.60;;
84025;SDS011;74110;45.660;25.582;2023-11-19T14:19:41;6.20;;;3.40;;
84025;SDS011;74110;45.660;25.582;2023-11-19T14:22:11;8.30;;;4.50;;
84025;SDS011;74110;45.660;25.582;2023-11-19T14:24:40;8.80;;;4.80;;
84025;SDS011;74110;45.660;25.582;2023-11-19T14:27:11;8.00;;;4.40;;
84025;SDS011;74110;45.660;25.582;2023-11-19T14:29:40;6.70;;;3.70;;
84025;SDS011;74110;45.660;25.582;2023-11-19T14:32:09;9.70;;;5.10;;
84025;SDS011;74110;45.660;25.582;2023-11-19T14:34:39;9.00;;;4.40;;
84025;SDS011;74110;45.660;25.582;2023-11-19T14:37:08;8.90;;;4.30;;
84025;SDS011;74110;45.660;25.582;2023-11-19T14:39:37;7.50;;;4.50;;
84025;SDS011;74110;45.660;25.582;2023-11-19T14:42:06;5.90;;;3.50;;
84025;SDS011;74110;45.660;25.582;2023-11-19T14:44:37;6.50;;;3.40;;
84025;SDS011;74110;45.660;25.582;2023-11-19T14:47:06;10.70;;;4.50;;
84025;SDS011;74110;45.660;25.582;2023-11-19T14:49:35;9.50;;;4.50;;
84025;SDS011;74110;45.660;25.582;2023-11-19T14:52:05;7.70;;;3.80;;
84025;SDS011;74110;45.660;25.582;2023-11-19T14:54:37;7.00;;;3.70;;
84025;SDS011;74110;45.660;25.582;2023-11-19T14:57:10;6.50;;;4.00;;
84025;SDS011;74110;45.660;25.582;2023-11-19T14:59:39;9.30;;;4.00;;
84025;SDS011;74110;45.660;25.582;2023-11-19T15:02:09;6.00;;;3.40;;
84025;SDS011;74110;45.660;25.582;2023-11-19T15:04:39;7.30;;;3.70;;
84025;SDS011;74110;45.660;25.582;2023-11-19T15:07:10;13.60;;;5.40;;
84025;SDS011;74110;45.660;25.582;2023-11-19T15:09:40;12.10;;;5.70;;
84025;SDS011;74110;45.660;25.582;2023-11-19T15:12:09;11.50;;;5.30;;
84025;SDS011;74110;45.660;25.582;2023-11-19T15:14:39;9.50;;;4.40;;
84025;SDS011;74110;45.660;25.582;2023-11-19T15:17:07;7.40;;;4.30;;
84025;SDS011;74110;45.660;25.582;2023-11-19T15:19:37;9.00;;;4.70;;
84025;SDS011;74110;45.660;25.582;2023-11-19T15:22:07;5.00;;;3.20;;
84025;SDS011;74110;45.660;25.582;2023-11-19T15:24:37;6.90;;;3.80;;
84025;SDS011;74110;45.660;25.582;2023-11-19T15:27:09;7.60;;;3.90;;
84025;SDS011;74110;45.660;25.582;2023-11-19T15:29:41;6.90;;;3.30;;
84025;SDS011;74110;45.660;25.582;2023-11-19T15:32:10;5.20;;;2.20;;